sensor_id;sensor_type;location;lat;lon;timestamp;P1;durP1;ratioP1;P2;durP2;ratioP2
76708;SDS011;65638;44.498;0.166;2023-01-08T00:12:25;9.37;;;4.27;;
76708;SDS011;65638;44.498;0.166;2023-01-08T00:26:13;12.03;;;4.10;;
76708;SDS011;65638;44.498;0.166;2023-01-08T00:40:03;11.53;;;4.93;;
76708;SDS011;65638;44.498;0.166;2023-01-08T00:53:54;13.40;;;3.93;;
76708;SDS011;65638;44.498;0.166;2023-01-08T01:07:44;9.80;;;3.63;;
76708;SDS011;65638;44.498;0.166;2023-01-08T01:35:25;19.50;;;3.70;;
76708;SDS011;65638;44.498;0.166;2023-01-08T01:49:16;8.33;;;3.80;;
76708;SDS011;65638;44.498;0.166;2023-01-08T02:30:45;15.90;;;3.90;;
76708;SDS011;65638;44.498;0.166;2023-01-08T02:44:38;5.50;;;2.20;;
76708;SDS011;65638;44.498;0.166;2023-01-08T02:58:26;4.90;;;1.60;;
76708;SDS011;65638;44.498;0.166;2023-01-08T03:12:17;9.10;;;1.53;;
76708;SDS011;65638;44.498;0.166;2023-01-08T03:26:06;8.33;;;1.47;;
76708;SDS011;65638;44.498;0.166;2023-01-08T03:53:47;8.23;;;1.37;;
76708;SDS011;65638;44.498;0.166;2023-01-08T04:07:38;5.13;;;1.67;;
76708;SDS011;65638;44.498;0.166;2023-01-08T04:21:31;7.97;;;1.23;;
76708;SDS011;65638;44.498;0.166;2023-01-08T04:35:22;5.50;;;1.37;;
76708;SDS011;65638;44.498;0.166;2023-01-08T04:49:11;6.67;;;2.10;;
76708;SDS011;65638;44.498;0.166;2023-01-08T05:03:02;12.10;;;2.03;;
76708;SDS011;65638;44.498;0.166;2023-01-08T05:16:53;6.83;;;1.63;;
76708;SDS011;65638;44.498;0.166;2023-01-08T05:30:42;7.73;;;1.43;;
76708;SDS011;65638;44.498;0.166;2023-01-08T05:44:33;6.97;;;1.67;;
76708;SDS011;65638;44.498;0.166;2023-01-08T05:58:26;7.17;;;1.57;;
76708;SDS011;65638;44.498;0.166;2023-01-08T06:12:15;10.40;;;2.20;;
76708;SDS011;65638;44.498;0.166;2023-01-08T06:26:05;8.43;;;1.97;;
76708;SDS011;65638;44.498;0.166;2023-01-08T06:39:57;7.27;;;2.47;;
76708;SDS011;65638;44.498;0.166;2023-01-08T06:53:47;14.27;;;1.73;;
76708;SDS011;65638;44.498;0.166;2023-01-08T07:21:28;13.57;;;2.97;;
76708;SDS011;65638;44.498;0.166;2023-01-08T07:35:18;7.57;;;2.40;;
76708;SDS011;65638;44.498;0.166;2023-01-08T07:49:08;6.53;;;2.50;;
76708;SDS011;65638;44.498;0.166;2023-01-08T08:03:01;12.40;;;4.73;;
76708;SDS011;65638;44.498;0.166;2023-01-08T08:16:50;13.50;;;3.67;;
76708;SDS011;65638;44.498;0.166;2023-01-08T08:30:41;8.40;;;2.83;;
76708;SDS011;65638;44.498;0.166;2023-01-08T08:44:31;14.97;;;5.40;;
76708;SDS011;65638;44.498;0.166;2023-01-08T08:58:21;8.43;;;2.87;;
76708;SDS011;65638;44.498;0.166;2023-01-08T09:12:12;7.57;;;2.57;;
76708;SDS011;65638;44.498;0.166;2023-01-08T09:26:03;10.07;;;3.27;;
76708;SDS011;65638;44.498;0.166;2023-01-08T09:39:53;6.70;;;2.70;;
76708;SDS011;65638;44.498;0.166;2023-01-08T09:53:43;9.93;;;4.87;;
76708;SDS011;65638;44.498;0.166;2023-01-08T10:07:33;12.30;;;4.90;;
76708;SDS011;65638;44.498;0.166;2023-01-08T10:35:15;11.00;;;3.93;;
76708;SDS011;65638;44.498;0.166;2023-01-08T10:49:04;9.83;;;3.37;;
76708;SDS011;65638;44.498;0.166;2023-01-08T11:02:53;11.63;;;4.63;;
76708;SDS011;65638;44.498;0.166;2023-01-08T11:16:43;12.87;;;4.33;;
76708;SDS011;65638;44.498;0.166;2023-01-08T11:30:32;15.33;;;5.17;;
76708;SDS011;65638;44.498;0.166;2023-01-08T11:44:26;11.83;;;4.77;;
76708;SDS011;65638;44.498;0.166;2023-01-08T12:12:03;10.10;;;5.33;;
76708;SDS011;65638;44.498;0.166;2023-01-08T12:41:16;8.20;;;4.33;;
76708;SDS011;65638;44.498;0.166;2023-01-08T12:53:38;9.60;;;4.60;;
76708;SDS011;65638;44.498;0.166;2023-01-08T13:07:25;8.37;;;3.37;;
76708;SDS011;65638;44.498;0.166;2023-01-08T13:21:13;12.63;;;5.20;;
76708;SDS011;65638;44.498;0.166;2023-01-08T13:48:57;12.40;;;5.60;;
76708;SDS011;65638;44.498;0.166;2023-01-08T14:16:35;7.23;;;3.53;;
76708;SDS011;65638;44.498;0.166;2023-01-08T14:30:29;5.97;;;3.13;;
76708;SDS011;65638;44.498;0.166;2023-01-08T14:44:17;6.43;;;2.70;;
76708;SDS011;65638;44.498;0.166;2023-01-08T14:58:11;2.73;;;1.60;;
76708;SDS011;65638;44.498;0.166;2023-01-08T15:11:58;0.43;;;0.30;;
76708;SDS011;65638;44.498;0.166;2023-01-08T15:25:47;2.53;;;1.53;;
76708;SDS011;65638;44.498;0.166;2023-01-08T15:39:39;1.53;;;1.03;;
76708;SDS011;65638;44.498;0.166;2023-01-08T15:53:29;3.50;;;1.60;;
76708;SDS011;65638;44.498;0.166;2023-01-08T16:07:21;4.63;;;1.77;;
76708;SDS011;65638;44.498;0.166;2023-01-08T16:21:11;3.43;;;1.77;;
76708;SDS011;65638;44.498;0.166;2023-01-08T16:35:03;0.97;;;0.43;;
76708;SDS011;65638;44.498;0.166;2023-01-08T16:48:52;1.73;;;0.73;;
76708;SDS011;65638;44.498;0.166;2023-01-08T17:02:42;7.10;;;1.10;;
76708;SDS011;65638;44.498;0.166;2023-01-08T17:16:33;1.13;;;0.67;;
76708;SDS011;65638;44.498;0.166;2023-01-08T17:30:24;0.37;;;0.20;;
76708;SDS011;65638;44.498;0.166;2023-01-08T17:44:15;2.37;;;1.27;;
76708;SDS011;65638;44.498;0.166;2023-01-08T17:58:04;4.70;;;2.33;;
76708;SDS011;65638;44.498;0.166;2023-01-08T18:11:56;1.23;;;0.83;;
76708;SDS011;65638;44.498;0.166;2023-01-08T18:25:46;0.73;;;0.50;;
76708;SDS011;65638;44.498;0.166;2023-01-08T18:39:37;2.23;;;0.67;;
76708;SDS011;65638;44.498;0.166;2023-01-08T18:53:27;1.57;;;0.73;;
76708;SDS011;65638;44.498;0.166;2023-01-08T19:07:18;2.87;;;1.07;;
76708;SDS011;65638;44.498;0.166;2023-01-08T19:21:08;11.80;;;0.73;;
76708;SDS011;65638;44.498;0.166;2023-01-08T19:34:58;5.53;;;1.10;;
76708;SDS011;65638;44.498;0.166;2023-01-08T19:48:47;5.33;;;1.97;;
76708;SDS011;65638;44.498;0.166;2023-01-08T20:02:37;4.87;;;1.47;;
76708;SDS011;65638;44.498;0.166;2023-01-08T20:16:27;3.27;;;1.47;;
76708;SDS011;65638;44.498;0.166;2023-01-08T20:30:17;5.17;;;2.37;;
76708;SDS011;65638;44.498;0.166;2023-01-08T20:44:06;4.37;;;1.00;;
76708;SDS011;65638;44.498;0.166;2023-01-08T20:57:57;0.30;;;0.30;;
76708;SDS011;65638;44.498;0.166;2023-01-08T21:11:48;11.57;;;2.60;;
76708;SDS011;65638;44.498;0.166;2023-01-08T21:25:38;14.30;;;1.17;;
76708;SDS011;65638;44.498;0.166;2023-01-08T21:39:27;9.37;;;3.53;;
76708;SDS011;65638;44.498;0.166;2023-01-08T21:53:32;16.03;;;4.47;;
76708;SDS011;65638;44.498;0.166;2023-01-08T22:07:08;7.80;;;1.37;;
76708;SDS011;65638;44.498;0.166;2023-01-08T22:20:59;9.30;;;1.27;;
76708;SDS011;65638;44.498;0.166;2023-01-08T22:34:47;0.53;;;0.53;;
76708;SDS011;65638;44.498;0.166;2023-01-08T22:48:38;0.60;;;0.30;;
76708;SDS011;65638;44.498;0.166;2023-01-08T23:02:29;11.57;;;0.90;;
76708;SDS011;65638;44.498;0.166;2023-01-08T23:16:20;5.63;;;1.83;;
76708;SDS011;65638;44.498;0.166;2023-01-08T23:44:01;6.23;;;0.43;;
